sensor_id;sensor_type;location;lat;lon;timestamp;temperature;humidity
34145;HTU21D;69555;53.014;8.886;2023-11-19T00:00:01;6.33;114.09
34145;HTU21D;69555;53.014;8.886;2023-11-19T00:02:31;6.49;113.74
34145;HTU21D;69555;53.014;8.886;2023-11-19T00:04:57;6.53;113.35
34145;HTU21D;69555;53.014;8.886;2023-11-19T00:07:24;6.53;112.99
34145;HTU21D;69555;53.014;8.886;2023-11-19T00:09:51;6.45;113.05
34145;HTU21D;69555;53.014;8.886;2023-11-19T00:12:17;6.52;113.54
34145;HTU21D;69555;53.014;8.886;2023-11-19T00:14:45;6.61;113.40
34145;HTU21D;69555;53.014;8.886;2023-11-19T00:17:12;6.69;112.74
34145;HTU21D;69555;53.014;8.886;2023-11-19T00:19:38;6.71;112.44
34145;HTU21D;69555;53.014;8.886;2023-11-19T00:22:05;6.73;112.75
34145;HTU21D;69555;53.014;8.886;2023-11-19T00:24:31;6.66;113.09
34145;HTU21D;69555;53.014;8.886;2023-11-19T00:26:58;6.87;112.72
34145;HTU21D;69555;53.014;8.886;2023-11-19T00:29:24;6.68;112.80
34145;HTU21D;69555;53.014;8.886;2023-11-19T00:31:51;6.80;113.00
34145;HTU21D;69555;53.014;8.886;2023-11-19T00:34:18;6.76;113.14
34145;HTU21D;69555;53.014;8.886;2023-11-19T00:36:47;6.89;112.67
34145;HTU21D;69555;53.014;8.886;2023-11-19T00:39:15;6.81;112.92
34145;HTU21D;69555;53.014;8.886;2023-11-19T00:41:41;6.85;113.03
34145;HTU21D;69555;53.014;8.886;2023-11-19T00:44:08;6.89;113.22
34145;HTU21D;69555;53.014;8.886;2023-11-19T00:46:35;6.89;113.40
34145;HTU21D;69555;53.014;8.886;2023-11-19T00:49:02;6.98;113.10
34145;HTU21D;69555;53.014;8.886;2023-11-19T00:51:29;7.00;113.13
34145;HTU21D;69555;53.014;8.886;2023-11-19T00:53:58;7.00;113.18
34145;HTU21D;69555;53.014;8.886;2023-11-19T00:56:25;7.00;113.21
34145;HTU21D;69555;53.014;8.886;2023-11-19T00:58:52;7.00;113.38
34145;HTU21D;69555;53.014;8.886;2023-11-19T01:01:19;7.02;113.26
34145;HTU21D;69555;53.014;8.886;2023-11-19T01:03:45;7.07;113.30
34145;HTU21D;69555;53.014;8.886;2023-11-19T01:06:12;7.14;113.32
34145;HTU21D;69555;53.014;8.886;2023-11-19T01:08:42;7.13;113.26
34145;HTU21D;69555;53.014;8.886;2023-11-19T01:11:19;7.13;113.51
34145;HTU21D;69555;53.014;8.886;2023-11-19T01:13:48;7.16;113.53
34145;HTU21D;69555;53.014;8.886;2023-11-19T01:16:14;7.24;113.29
34145;HTU21D;69555;53.014;8.886;2023-11-19T01:18:41;7.37;113.29
34145;HTU21D;69555;53.014;8.886;2023-11-19T01:21:08;7.43;112.77
34145;HTU21D;69555;53.014;8.886;2023-11-19T01:23:35;7.34;113.08
34145;HTU21D;69555;53.014;8.886;2023-11-19T01:26:02;7.43;113.01
34145;HTU21D;69555;53.014;8.886;2023-11-19T01:28:29;7.49;112.73
34145;HTU21D;69555;53.014;8.886;2023-11-19T01:30:57;7.43;112.77
34145;HTU21D;69555;53.014;8.886;2023-11-19T01:33:23;7.69;112.46
34145;HTU21D;69555;53.014;8.886;2023-11-19T01:35:50;7.67;111.94
34145;HTU21D;69555;53.014;8.886;2023-11-19T01:38:17;7.45;112.88
34145;HTU21D;69555;53.014;8.886;2023-11-19T01:40:43;7.68;112.93
34145;HTU21D;69555;53.014;8.886;2023-11-19T01:43:09;7.54;112.76
34145;HTU21D;69555;53.014;8.886;2023-11-19T01:45:41;7.61;112.72
34145;HTU21D;69555;53.014;8.886;2023-11-19T01:48:08;7.63;112.79
34145;HTU21D;69555;53.014;8.886;2023-11-19T01:50:38;7.71;112.85
34145;HTU21D;69555;53.014;8.886;2023-11-19T01:53:04;7.56;113.02
34145;HTU21D;69555;53.014;8.886;2023-11-19T01:55:31;7.68;113.06
34145;HTU21D;69555;53.014;8.886;2023-11-19T01:58:01;7.72;113.00
34145;HTU21D;69555;53.014;8.886;2023-11-19T02:00:28;7.96;112.80
34145;HTU21D;69555;53.014;8.886;2023-11-19T02:02:55;7.92;112.53
34145;HTU21D;69555;53.014;8.886;2023-11-19T02:05:22;7.98;112.68
34145;HTU21D;69555;53.014;8.886;2023-11-19T02:07:48;8.07;112.90
34145;HTU21D;69555;53.014;8.886;2023-11-19T02:10:16;8.15;112.81
34145;HTU21D;69555;53.014;8.886;2023-11-19T02:12:45;8.27;113.30
34145;HTU21D;69555;53.014;8.886;2023-11-19T02:15:12;8.41;113.79
34145;HTU21D;69555;53.014;8.886;2023-11-19T02:17:39;8.57;113.96
34145;HTU21D;69555;53.014;8.886;2023-11-19T02:20:06;8.59;114.13
34145;HTU21D;69555;53.014;8.886;2023-11-19T02:22:38;8.67;114.47
34145;HTU21D;69555;53.014;8.886;2023-11-19T02:27:55;8.89;114.53
34145;HTU21D;69555;53.014;8.886;2023-11-19T02:30:23;8.93;114.53
34145;HTU21D;69555;53.014;8.886;2023-11-19T02:32:57;9.00;114.51
34145;HTU21D;69555;53.014;8.886;2023-11-19T02:35:25;9.09;114.58
34145;HTU21D;69555;53.014;8.886;2023-11-19T02:37:58;9.09;114.51
34145;HTU21D;69555;53.014;8.886;2023-11-19T02:40:30;9.10;114.48
34145;HTU21D;69555;53.014;8.886;2023-11-19T02:42:56;9.31;114.71
34145;HTU21D;69555;53.014;8.886;2023-11-19T02:45:24;9.32;114.57
34145;HTU21D;69555;53.014;8.886;2023-11-19T02:47:52;9.47;114.56
34145;HTU21D;69555;53.014;8.886;2023-11-19T02:50:19;9.54;114.65
34145;HTU21D;69555;53.014;8.886;2023-11-19T02:52:53;9.55;114.56
34145;HTU21D;69555;53.014;8.886;2023-11-19T02:55:19;9.57;114.62
34145;HTU21D;69555;53.014;8.886;2023-11-19T02:57:46;9.62;114.41
34145;HTU21D;69555;53.014;8.886;2023-11-19T03:00:17;9.72;114.41
34145;HTU21D;69555;53.014;8.886;2023-11-19T03:02:44;9.71;114.32
34145;HTU21D;69555;53.014;8.886;2023-11-19T03:05:15;9.81;114.38
34145;HTU21D;69555;53.014;8.886;2023-11-19T03:07:44;9.78;114.24
34145;HTU21D;69555;53.014;8.886;2023-11-19T03:10:10;9.88;114.38
34145;HTU21D;69555;53.014;8.886;2023-11-19T03:12:41;9.88;114.07
34145;HTU21D;69555;53.014;8.886;2023-11-19T03:15:08;9.95;114.12
34145;HTU21D;69555;53.014;8.886;2023-11-19T03:17:41;9.93;114.14
34145;HTU21D;69555;53.014;8.886;2023-11-19T03:20:10;9.99;114.28
34145;HTU21D;69555;53.014;8.886;2023-11-19T03:22:38;10.06;114.20
34145;HTU21D;69555;53.014;8.886;2023-11-19T03:25:04;10.08;114.00
34145;HTU21D;69555;53.014;8.886;2023-11-19T03:27:34;10.12;114.15
34145;HTU21D;69555;53.014;8.886;2023-11-19T03:30:06;10.20;114.07
34145;HTU21D;69555;53.014;8.886;2023-11-19T03:32:33;10.19;114.08
34145;HTU21D;69555;53.014;8.886;2023-11-19T03:35:02;10.22;114.09
34145;HTU21D;69555;53.014;8.886;2023-11-19T03:37:31;10.23;113.83
34145;HTU21D;69555;53.014;8.886;2023-11-19T03:39:58;10.35;113.85
34145;HTU21D;69555;53.014;8.886;2023-11-19T03:42:31;10.30;113.66
34145;HTU21D;69555;53.014;8.886;2023-11-19T03:44:58;10.34;113.83
34145;HTU21D;69555;53.014;8.886;2023-11-19T03:47:26;10.36;113.76
34145;HTU21D;69555;53.014;8.886;2023-11-19T03:49:52;10.39;113.96
34145;HTU21D;69555;53.014;8.886;2023-11-19T03:52:19;10.36;114.02
34145;HTU21D;69555;53.014;8.886;2023-11-19T03:54:45;10.38;113.91
34145;HTU21D;69555;53.014;8.886;2023-11-19T03:57:12;10.41;113.71
34145;HTU21D;69555;53.014;8.886;2023-11-19T03:59:39;10.50;113.76
34145;HTU21D;69555;53.014;8.886;2023-11-19T04:02:06;10.46;113.93
34145;HTU21D;69555;53.014;8.886;2023-11-19T04:04:33;10.52;113.79
34145;HTU21D;69555;53.014;8.886;2023-11-19T04:07:01;10.49;113.78
34145;HTU21D;69555;53.014;8.886;2023-11-19T04:09:32;10.55;113.77
34145;HTU21D;69555;53.014;8.886;2023-11-19T04:12:03;10.53;113.62
34145;HTU21D;69555;53.014;8.886;2023-11-19T04:14:30;10.49;113.80
34145;HTU21D;69555;53.014;8.886;2023-11-19T04:16:56;10.48;113.71
34145;HTU21D;69555;53.014;8.886;2023-11-19T04:19:22;10.56;113.84
34145;HTU21D;69555;53.014;8.886;2023-11-19T04:21:48;10.60;113.78
34145;HTU21D;69555;53.014;8.886;2023-11-19T04:24:15;10.64;113.53
34145;HTU21D;69555;53.014;8.886;2023-11-19T04:26:42;10.62;113.75
34145;HTU21D;69555;53.014;8.886;2023-11-19T04:29:09;10.60;113.79
34145;HTU21D;69555;53.014;8.886;2023-11-19T04:31:37;10.71;113.55
34145;HTU21D;69555;53.014;8.886;2023-11-19T04:34:05;10.80;113.31
34145;HTU21D;69555;53.014;8.886;2023-11-19T04:36:33;10.75;113.32
34145;HTU21D;69555;53.014;8.886;2023-11-19T04:39:00;10.77;113.34
34145;HTU21D;69555;53.014;8.886;2023-11-19T04:41:28;10.78;113.00
34145;HTU21D;69555;53.014;8.886;2023-11-19T04:43:54;10.78;113.26
34145;HTU21D;69555;53.014;8.886;2023-11-19T04:46:21;10.81;113.25
34145;HTU21D;69555;53.014;8.886;2023-11-19T04:48:50;10.84;113.03
34145;HTU21D;69555;53.014;8.886;2023-11-19T04:51:17;10.89;112.96
34145;HTU21D;69555;53.014;8.886;2023-11-19T04:53:44;10.87;112.86
34145;HTU21D;69555;53.014;8.886;2023-11-19T04:56:11;10.92;113.00
34145;HTU21D;69555;53.014;8.886;2023-11-19T04:58:38;11.00;112.69
34145;HTU21D;69555;53.014;8.886;2023-11-19T05:01:05;11.00;112.58
34145;HTU21D;69555;53.014;8.886;2023-11-19T05:03:31;11.00;112.39
34145;HTU21D;69555;53.014;8.886;2023-11-19T05:05:58;11.03;112.29
34145;HTU21D;69555;53.014;8.886;2023-11-19T05:08:25;11.05;112.45
34145;HTU21D;69555;53.014;8.886;2023-11-19T05:10:52;11.03;112.35
34145;HTU21D;69555;53.014;8.886;2023-11-19T05:13:19;11.00;112.52
34145;HTU21D;69555;53.014;8.886;2023-11-19T05:15:45;11.07;112.21
34145;HTU21D;69555;53.014;8.886;2023-11-19T05:18:12;11.05;112.09
34145;HTU21D;69555;53.014;8.886;2023-11-19T05:20:37;11.11;111.87
34145;HTU21D;69555;53.014;8.886;2023-11-19T05:23:04;11.13;111.71
34145;HTU21D;69555;53.014;8.886;2023-11-19T05:25:30;11.14;111.55
34145;HTU21D;69555;53.014;8.886;2023-11-19T05:27:57;11.11;111.42
34145;HTU21D;69555;53.014;8.886;2023-11-19T05:30:24;11.09;111.61
34145;HTU21D;69555;53.014;8.886;2023-11-19T05:32:51;11.09;111.51
34145;HTU21D;69555;53.014;8.886;2023-11-19T05:35:17;11.09;111.81
34145;HTU21D;69555;53.014;8.886;2023-11-19T05:37:44;11.13;111.18
34145;HTU21D;69555;53.014;8.886;2023-11-19T05:40:11;11.22;110.56
34145;HTU21D;69555;53.014;8.886;2023-11-19T05:42:44;11.08;111.45
34145;HTU21D;69555;53.014;8.886;2023-11-19T05:45:14;11.01;111.35
34145;HTU21D;69555;53.014;8.886;2023-11-19T05:47:41;11.11;110.96
34145;HTU21D;69555;53.014;8.886;2023-11-19T05:50:09;11.10;111.36
34145;HTU21D;69555;53.014;8.886;2023-11-19T05:52:36;11.07;111.10
34145;HTU21D;69555;53.014;8.886;2023-11-19T05:55:04;11.13;110.90
34145;HTU21D;69555;53.014;8.886;2023-11-19T05:57:32;11.12;110.63
34145;HTU21D;69555;53.014;8.886;2023-11-19T06:00:02;11.18;110.67
34145;HTU21D;69555;53.014;8.886;2023-11-19T06:02:30;11.15;110.52
34145;HTU21D;69555;53.014;8.886;2023-11-19T06:04:59;11.22;110.04
34145;HTU21D;69555;53.014;8.886;2023-11-19T06:07:25;11.24;109.36
34145;HTU21D;69555;53.014;8.886;2023-11-19T06:09:52;11.28;108.86
34145;HTU21D;69555;53.014;8.886;2023-11-19T06:12:19;11.31;108.59
34145;HTU21D;69555;53.014;8.886;2023-11-19T06:14:45;11.34;107.91
34145;HTU21D;69555;53.014;8.886;2023-11-19T06:17:12;11.33;107.92
34145;HTU21D;69555;53.014;8.886;2023-11-19T06:19:39;11.33;107.86
34145;HTU21D;69555;53.014;8.886;2023-11-19T06:22:09;11.34;107.57
34145;HTU21D;69555;53.014;8.886;2023-11-19T06:24:35;11.36;107.07
34145;HTU21D;69555;53.014;8.886;2023-11-19T06:27:03;11.28;107.33
34145;HTU21D;69555;53.014;8.886;2023-11-19T06:29:31;11.36;106.82
34145;HTU21D;69555;53.014;8.886;2023-11-19T06:31:58;11.27;107.25
34145;HTU21D;69555;53.014;8.886;2023-11-19T06:34:25;11.26;107.17
34145;HTU21D;69555;53.014;8.886;2023-11-19T06:36:51;11.32;106.54
34145;HTU21D;69555;53.014;8.886;2023-11-19T06:39:19;11.29;106.94
34145;HTU21D;69555;53.014;8.886;2023-11-19T06:41:45;11.30;106.69
34145;HTU21D;69555;53.014;8.886;2023-11-19T06:44:13;11.30;106.04
34145;HTU21D;69555;53.014;8.886;2023-11-19T06:46:39;11.31;106.26
34145;HTU21D;69555;53.014;8.886;2023-11-19T06:49:06;11.37;105.41
34145;HTU21D;69555;53.014;8.886;2023-11-19T06:51:36;11.34;105.53
34145;HTU21D;69555;53.014;8.886;2023-11-19T06:54:07;11.40;105.30
34145;HTU21D;69555;53.014;8.886;2023-11-19T06:56:33;11.38;105.53
34145;HTU21D;69555;53.014;8.886;2023-11-19T06:59:00;11.39;105.44
34145;HTU21D;69555;53.014;8.886;2023-11-19T07:01:26;11.43;105.18
34145;HTU21D;69555;53.014;8.886;2023-11-19T07:03:53;11.38;105.60
34145;HTU21D;69555;53.014;8.886;2023-11-19T07:06:20;11.41;105.18
34145;HTU21D;69555;53.014;8.886;2023-11-19T07:08:47;11.44;104.89
34145;HTU21D;69555;53.014;8.886;2023-11-19T07:11:13;11.34;105.52
34145;HTU21D;69555;53.014;8.886;2023-11-19T07:13:41;11.39;104.86
34145;HTU21D;69555;53.014;8.886;2023-11-19T07:16:08;11.33;105.10
34145;HTU21D;69555;53.014;8.886;2023-11-19T07:18:36;11.31;105.47
34145;HTU21D;69555;53.014;8.886;2023-11-19T07:21:07;11.43;104.86
34145;HTU21D;69555;53.014;8.886;2023-11-19T07:23:35;11.40;105.05
34145;HTU21D;69555;53.014;8.886;2023-11-19T07:26:05;11.37;105.26
34145;HTU21D;69555;53.014;8.886;2023-11-19T07:28:34;11.43;105.11
34145;HTU21D;69555;53.014;8.886;2023-11-19T07:31:01;11.31;105.92
34145;HTU21D;69555;53.014;8.886;2023-11-19T07:33:28;11.26;105.37
34145;HTU21D;69555;53.014;8.886;2023-11-19T07:35:55;11.23;105.63
34145;HTU21D;69555;53.014;8.886;2023-11-19T07:38:22;11.29;105.76
34145;HTU21D;69555;53.014;8.886;2023-11-19T07:40:49;11.23;106.92
34145;HTU21D;69555;53.014;8.886;2023-11-19T07:43:16;11.20;107.15
34145;HTU21D;69555;53.014;8.886;2023-11-19T07:45:42;11.24;107.32
34145;HTU21D;69555;53.014;8.886;2023-11-19T07:48:13;11.22;107.45
34145;HTU21D;69555;53.014;8.886;2023-11-19T07:50:40;11.20;106.79
34145;HTU21D;69555;53.014;8.886;2023-11-19T07:53:09;11.31;105.97
34145;HTU21D;69555;53.014;8.886;2023-11-19T07:55:36;11.28;106.39
34145;HTU21D;69555;53.014;8.886;2023-11-19T07:58:02;11.28;105.96
34145;HTU21D;69555;53.014;8.886;2023-11-19T08:00:29;11.31;105.69
34145;HTU21D;69555;53.014;8.886;2023-11-19T08:02:56;11.36;105.77
34145;HTU21D;69555;53.014;8.886;2023-11-19T08:05:23;11.29;104.76
34145;HTU21D;69555;53.014;8.886;2023-11-19T08:07:51;11.38;103.43
34145;HTU21D;69555;53.014;8.886;2023-11-19T08:10:20;11.37;103.60
34145;HTU21D;69555;53.014;8.886;2023-11-19T08:12:46;11.30;103.68
34145;HTU21D;69555;53.014;8.886;2023-11-19T08:15:13;11.25;104.77
34145;HTU21D;69555;53.014;8.886;2023-11-19T08:17:40;11.31;103.73
34145;HTU21D;69555;53.014;8.886;2023-11-19T08:20:08;11.30;103.61
34145;HTU21D;69555;53.014;8.886;2023-11-19T08:22:37;11.37;102.84
34145;HTU21D;69555;53.014;8.886;2023-11-19T08:25:05;11.27;103.21
34145;HTU21D;69555;53.014;8.886;2023-11-19T08:27:32;11.30;103.48
34145;HTU21D;69555;53.014;8.886;2023-11-19T08:29:58;11.25;103.35
34145;HTU21D;69555;53.014;8.886;2023-11-19T08:32:26;11.12;103.73
34145;HTU21D;69555;53.014;8.886;2023-11-19T08:34:52;11.17;103.12
34145;HTU21D;69555;53.014;8.886;2023-11-19T08:37:19;11.08;103.28
34145;HTU21D;69555;53.014;8.886;2023-11-19T08:39:48;11.15;102.31
34145;HTU21D;69555;53.014;8.886;2023-11-19T08:42:15;11.15;101.96
34145;HTU21D;69555;53.014;8.886;2023-11-19T08:44:43;11.10;102.70
34145;HTU21D;69555;53.014;8.886;2023-11-19T08:47:11;11.19;101.93
34145;HTU21D;69555;53.014;8.886;2023-11-19T08:49:38;11.26;101.48
34145;HTU21D;69555;53.014;8.886;2023-11-19T08:52:05;11.25;101.72
34145;HTU21D;69555;53.014;8.886;2023-11-19T08:54:35;11.66;98.67
34145;HTU21D;69555;53.014;8.886;2023-11-19T08:57:02;11.82;98.00
34145;HTU21D;69555;53.014;8.886;2023-11-19T08:59:30;11.97;96.20
34145;HTU21D;69555;53.014;8.886;2023-11-19T09:01:56;12.07;96.93
34145;HTU21D;69555;53.014;8.886;2023-11-19T09:04:23;12.20;96.48
34145;HTU21D;69555;53.014;8.886;2023-11-19T09:06:50;12.21;95.69
34145;HTU21D;69555;53.014;8.886;2023-11-19T09:09:17;12.10;96.75
34145;HTU21D;69555;53.014;8.886;2023-11-19T09:11:43;12.02;97.22
34145;HTU21D;69555;53.014;8.886;2023-11-19T09:14:10;12.01;98.16
34145;HTU21D;69555;53.014;8.886;2023-11-19T09:16:36;12.06;97.99
34145;HTU21D;69555;53.014;8.886;2023-11-19T09:19:06;12.12;97.61
34145;HTU21D;69555;53.014;8.886;2023-11-19T09:21:32;12.37;97.83
34145;HTU21D;69555;53.014;8.886;2023-11-19T09:24:01;12.20;97.12
34145;HTU21D;69555;53.014;8.886;2023-11-19T09:26:27;12.17;97.98
34145;HTU21D;69555;53.014;8.886;2023-11-19T09:28:54;12.03;98.84
34145;HTU21D;69555;53.014;8.886;2023-11-19T09:31:20;11.87;99.89
34145;HTU21D;69555;53.014;8.886;2023-11-19T09:33:47;11.81;101.26
34145;HTU21D;69555;53.014;8.886;2023-11-19T09:36:12;11.74;102.29
34145;HTU21D;69555;53.014;8.886;2023-11-19T09:38:46;11.62;102.66
34145;HTU21D;69555;53.014;8.886;2023-11-19T09:41:13;11.67;103.34
34145;HTU21D;69555;53.014;8.886;2023-11-19T09:43:41;11.59;103.19
34145;HTU21D;69555;53.014;8.886;2023-11-19T09:46:13;11.55;104.37
34145;HTU21D;69555;53.014;8.886;2023-11-19T09:48:42;11.54;103.99
34145;HTU21D;69555;53.014;8.886;2023-11-19T09:51:10;11.56;104.32
34145;HTU21D;69555;53.014;8.886;2023-11-19T09:53:38;11.62;103.98
34145;HTU21D;69555;53.014;8.886;2023-11-19T09:56:05;11.60;104.23
34145;HTU21D;69555;53.014;8.886;2023-11-19T09:58:32;11.69;102.91
34145;HTU21D;69555;53.014;8.886;2023-11-19T10:01:00;11.72;102.23
34145;HTU21D;69555;53.014;8.886;2023-11-19T10:03:35;11.64;103.03
34145;HTU21D;69555;53.014;8.886;2023-11-19T10:06:08;11.64;103.55
34145;HTU21D;69555;53.014;8.886;2023-11-19T10:08:38;11.64;103.79
34145;HTU21D;69555;53.014;8.886;2023-11-19T10:11:08;11.57;104.50
34145;HTU21D;69555;53.014;8.886;2023-11-19T10:13:37;11.54;104.15
34145;HTU21D;69555;53.014;8.886;2023-11-19T10:16:12;11.59;103.70
34145;HTU21D;69555;53.014;8.886;2023-11-19T10:18:49;11.68;103.58
34145;HTU21D;69555;53.014;8.886;2023-11-19T10:21:22;11.72;103.76
34145;HTU21D;69555;53.014;8.886;2023-11-19T10:23:53;11.79;103.55
34145;HTU21D;69555;53.014;8.886;2023-11-19T10:26:20;11.93;101.75
34145;HTU21D;69555;53.014;8.886;2023-11-19T10:28:48;12.07;100.41
34145;HTU21D;69555;53.014;8.886;2023-11-19T10:31:15;12.06;100.85
34145;HTU21D;69555;53.014;8.886;2023-11-19T10:33:44;12.02;100.12
34145;HTU21D;69555;53.014;8.886;2023-11-19T10:36:14;12.06;100.61
34145;HTU21D;69555;53.014;8.886;2023-11-19T10:38:40;12.11;101.47
34145;HTU21D;69555;53.014;8.886;2023-11-19T10:41:07;12.06;101.49
34145;HTU21D;69555;53.014;8.886;2023-11-19T10:43:43;12.17;99.86
34145;HTU21D;69555;53.014;8.886;2023-11-19T10:46:16;12.14;100.45
34145;HTU21D;69555;53.014;8.886;2023-11-19T10:48:47;12.10;101.07
34145;HTU21D;69555;53.014;8.886;2023-11-19T10:51:18;11.90;101.88
34145;HTU21D;69555;53.014;8.886;2023-11-19T10:53:49;11.89;100.95
34145;HTU21D;69555;53.014;8.886;2023-11-19T10:56:18;11.90;101.41
34145;HTU21D;69555;53.014;8.886;2023-11-19T10:58:45;11.84;100.83
34145;HTU21D;69555;53.014;8.886;2023-11-19T11:01:19;11.70;102.09
34145;HTU21D;69555;53.014;8.886;2023-11-19T11:03:51;11.73;101.91
34145;HTU21D;69555;53.014;8.886;2023-11-19T11:06:21;11.72;102.21
34145;HTU21D;69555;53.014;8.886;2023-11-19T11:08:49;11.58;102.28
34145;HTU21D;69555;53.014;8.886;2023-11-19T11:11:16;11.49;103.10
34145;HTU21D;69555;53.014;8.886;2023-11-19T11:13:47;11.57;103.55
34145;HTU21D;69555;53.014;8.886;2023-11-19T11:16:18;11.59;104.21
34145;HTU21D;69555;53.014;8.886;2023-11-19T11:18:48;11.72;104.05
34145;HTU21D;69555;53.014;8.886;2023-11-19T11:21:20;11.98;102.27
34145;HTU21D;69555;53.014;8.886;2023-11-19T11:35:01;12.02;100.52
34145;HTU21D;69555;53.014;8.886;2023-11-19T11:37:42;11.93;100.22
34145;HTU21D;69555;53.014;8.886;2023-11-19T11:40:15;11.91;100.85
34145;HTU21D;69555;53.014;8.886;2023-11-19T11:42:42;12.00;100.63
34145;HTU21D;69555;53.014;8.886;2023-11-19T11:45:14;12.02;99.96
34145;HTU21D;69555;53.014;8.886;2023-11-19T11:48:16;12.16;100.22
34145;HTU21D;69555;53.014;8.886;2023-11-19T11:50:57;12.14;99.54
34145;HTU21D;69555;53.014;8.886;2023-11-19T11:53:25;12.18;99.09
34145;HTU21D;69555;53.014;8.886;2023-11-19T11:55:55;12.10;99.66
34145;HTU21D;69555;53.014;8.886;2023-11-19T11:58:27;12.07;100.00
34145;HTU21D;69555;53.014;8.886;2023-11-19T12:00:53;12.05;99.49
34145;HTU21D;69555;53.014;8.886;2023-11-19T12:03:21;12.11;99.38
34145;HTU21D;69555;53.014;8.886;2023-11-19T12:05:49;12.06;98.87
34145;HTU21D;69555;53.014;8.886;2023-11-19T12:08:22;12.07;99.06
34145;HTU21D;69555;53.014;8.886;2023-11-19T12:10:52;12.10;98.56
34145;HTU21D;69555;53.014;8.886;2023-11-19T12:13:20;12.15;98.87
34145;HTU21D;69555;53.014;8.886;2023-11-19T12:18:29;12.04;98.83
34145;HTU21D;69555;53.014;8.886;2023-11-19T12:20:56;12.04;99.10
34145;HTU21D;69555;53.014;8.886;2023-11-19T12:23:23;11.96;99.90
34145;HTU21D;69555;53.014;8.886;2023-11-19T12:25:50;11.92;99.58
34145;HTU21D;69555;53.014;8.886;2023-11-19T12:28:17;11.89;99.90
34145;HTU21D;69555;53.014;8.886;2023-11-19T12:30:49;11.89;99.84
34145;HTU21D;69555;53.014;8.886;2023-11-19T12:33:16;11.86;98.89
34145;HTU21D;69555;53.014;8.886;2023-11-19T12:35:45;11.83;99.58
34145;HTU21D;69555;53.014;8.886;2023-11-19T12:38:23;11.78;99.79
34145;HTU21D;69555;53.014;8.886;2023-11-19T12:41:08;11.71;101.09
34145;HTU21D;69555;53.014;8.886;2023-11-19T12:43:38;11.51;103.86
34145;HTU21D;69555;53.014;8.886;2023-11-19T12:46:25;11.23;104.38
34145;HTU21D;69555;53.014;8.886;2023-11-19T12:48:53;11.05;107.02
34145;HTU21D;69555;53.014;8.886;2023-11-19T12:51:20;10.94;107.36
34145;HTU21D;69555;53.014;8.886;2023-11-19T12:53:52;10.96;107.70
34145;HTU21D;69555;53.014;8.886;2023-11-19T12:56:24;11.00;107.50
34145;HTU21D;69555;53.014;8.886;2023-11-19T12:58:51;10.82;106.91
34145;HTU21D;69555;53.014;8.886;2023-11-19T13:01:18;10.82;105.15
34145;HTU21D;69555;53.014;8.886;2023-11-19T13:03:46;10.75;105.24
34145;HTU21D;69555;53.014;8.886;2023-11-19T13:06:13;10.69;104.64
34145;HTU21D;69555;53.014;8.886;2023-11-19T13:08:49;10.59;104.37
34145;HTU21D;69555;53.014;8.886;2023-11-19T13:11:39;10.43;105.32
34145;HTU21D;69555;53.014;8.886;2023-11-19T13:14:07;10.49;105.00
34145;HTU21D;69555;53.014;8.886;2023-11-19T13:16:36;10.42;105.91
34145;HTU21D;69555;53.014;8.886;2023-11-19T13:19:03;10.52;105.37
34145;HTU21D;69555;53.014;8.886;2023-11-19T13:21:30;10.54;105.63
34145;HTU21D;69555;53.014;8.886;2023-11-19T13:23:56;10.48;105.32
34145;HTU21D;69555;53.014;8.886;2023-11-19T13:26:23;10.46;103.02
34145;HTU21D;69555;53.014;8.886;2023-11-19T13:28:50;10.51;103.18
34145;HTU21D;69555;53.014;8.886;2023-11-19T13:31:16;10.49;103.77
34145;HTU21D;69555;53.014;8.886;2023-11-19T13:33:43;10.59;103.93
34145;HTU21D;69555;53.014;8.886;2023-11-19T13:36:10;10.53;104.53
34145;HTU21D;69555;53.014;8.886;2023-11-19T13:38:37;10.62;103.93
34145;HTU21D;69555;53.014;8.886;2023-11-19T13:41:04;10.69;104.44
34145;HTU21D;69555;53.014;8.886;2023-11-19T13:43:31;10.65;104.44
34145;HTU21D;69555;53.014;8.886;2023-11-19T13:45:58;10.58;104.72
34145;HTU21D;69555;53.014;8.886;2023-11-19T13:48:25;10.59;104.95
34145;HTU21D;69555;53.014;8.886;2023-11-19T13:50:53;10.54;105.15
34145;HTU21D;69555;53.014;8.886;2023-11-19T13:53:20;10.68;104.63
34145;HTU21D;69555;53.014;8.886;2023-11-19T13:55:47;10.67;104.72
34145;HTU21D;69555;53.014;8.886;2023-11-19T13:58:16;10.64;104.92
34145;HTU21D;69555;53.014;8.886;2023-11-19T14:00:43;10.65;104.97
34145;HTU21D;69555;53.014;8.886;2023-11-19T14:03:10;10.62;105.39
34145;HTU21D;69555;53.014;8.886;2023-11-19T14:05:38;10.70;105.13
34145;HTU21D;69555;53.014;8.886;2023-11-19T14:08:07;10.77;104.92
34145;HTU21D;69555;53.014;8.886;2023-11-19T14:10:40;10.86;104.91
34145;HTU21D;69555;53.014;8.886;2023-11-19T14:13:07;10.92;105.24
34145;HTU21D;69555;53.014;8.886;2023-11-19T14:15:34;11.02;104.53
34145;HTU21D;69555;53.014;8.886;2023-11-19T14:18:02;11.12;104.28
34145;HTU21D;69555;53.014;8.886;2023-11-19T14:20:29;11.07;104.37
34145;HTU21D;69555;53.014;8.886;2023-11-19T14:22:56;11.04;104.28
34145;HTU21D;69555;53.014;8.886;2023-11-19T14:25:23;11.15;103.44
34145;HTU21D;69555;53.014;8.886;2023-11-19T14:27:49;11.07;103.16
34145;HTU21D;69555;53.014;8.886;2023-11-19T14:30:16;11.04;103.56
34145;HTU21D;69555;53.014;8.886;2023-11-19T14:32:43;10.94;104.15
34145;HTU21D;69555;53.014;8.886;2023-11-19T14:35:12;10.88;103.72
34145;HTU21D;69555;53.014;8.886;2023-11-19T14:37:39;10.82;103.24
34145;HTU21D;69555;53.014;8.886;2023-11-19T14:40:06;10.74;103.78
34145;HTU21D;69555;53.014;8.886;2023-11-19T14:42:35;10.70;104.08
34145;HTU21D;69555;53.014;8.886;2023-11-19T14:45:03;10.71;103.89
34145;HTU21D;69555;53.014;8.886;2023-11-19T14:47:30;10.74;103.03
34145;HTU21D;69555;53.014;8.886;2023-11-19T14:49:57;10.69;103.35
34145;HTU21D;69555;53.014;8.886;2023-11-19T14:52:24;10.69;103.11
34145;HTU21D;69555;53.014;8.886;2023-11-19T14:54:50;10.64;103.27
34145;HTU21D;69555;53.014;8.886;2023-11-19T14:57:20;10.56;103.84
34145;HTU21D;69555;53.014;8.886;2023-11-19T14:59:46;10.63;103.44
34145;HTU21D;69555;53.014;8.886;2023-11-19T15:02:13;10.59;103.75
34145;HTU21D;69555;53.014;8.886;2023-11-19T15:04:40;10.59;103.75
34145;HTU21D;69555;53.014;8.886;2023-11-19T15:07:08;10.66;103.68
34145;HTU21D;69555;53.014;8.886;2023-11-19T15:09:35;10.56;103.66
34145;HTU21D;69555;53.014;8.886;2023-11-19T15:12:04;10.56;104.18
34145;HTU21D;69555;53.014;8.886;2023-11-19T15:14:42;10.52;104.98
34145;HTU21D;69555;53.014;8.886;2023-11-19T15:17:08;10.58;104.71
34145;HTU21D;69555;53.014;8.886;2023-11-19T15:19:35;10.53;104.76
34145;HTU21D;69555;53.014;8.886;2023-11-19T15:22:02;10.56;104.74
34145;HTU21D;69555;53.014;8.886;2023-11-19T15:24:32;10.55;104.98
34145;HTU21D;69555;53.014;8.886;2023-11-19T15:26:58;10.54;105.08